Time;durP1;ratioP1;P1;durP2;ratioP2;P2;SDS_P1;SDS_P2;PMS_P1;PMS_P2;Temp;Humidity;BMP_temperature;BMP_pressure;BME280_temperature;BME280_humidity;BME280_pressure;Samples;Min_cycle;Max_cycle;Signal;HPM_P1;HPM_P2
2021/05/16 00:02:39;;;;;;;1.60;0.77;;;;;;;13.85;55.08;96837.44;8284393;28;20208;-67
2021/05/16 00:06:41;;;;;;;3.23;1.03;;;;;;;13.84;55.25;96841.00;8285715;28;20520;-67
2021/05/16 00:10:44;;;;;;;1.30;0.60;;;;;;;13.75;55.25;96844.31;8285598;28;20212;-67
2021/05/16 00:14:48;;;;;;;1.30;0.70;;;;;;;13.64;55.94;96839.91;8285459;28;20208;-66
2021/05/16 00:18:51;;;;;;;2.10;1.00;;;;;;;13.71;55.83;96849.84;8285495;28;20233;-67
2021/05/16 00:22:54;;;;;;;3.80;0.90;;;;;;;13.67;55.72;96849.25;8285107;28;20397;-66
2021/05/16 00:26:56;;;;;;;1.83;0.90;;;;;;;13.42;56.62;96852.81;8284854;28;20205;-66
2021/05/16 00:30:59;;;;;;;2.70;0.90;;;;;;;13.48;56.37;96855.81;8295839;28;20207;-68
2021/05/16 00:35:03;;;;;;;2.63;0.60;;;;;;;13.69;55.84;96857.78;8317378;28;20212;-66
2021/05/16 00:39:06;;;;;;;3.30;0.90;;;;;;;13.69;55.90;96863.81;8317563;28;20295;-66
2021/05/16 00:43:08;;;;;;;3.27;0.90;;;;;;;13.63;55.93;96859.06;8316981;28;20208;-66
2021/05/16 00:47:10;;;;;;;1.00;0.60;;;;;;;13.65;55.73;96859.78;8317181;28;20201;-66
2021/05/16 00:51:14;;;;;;;3.13;0.80;;;;;;;13.47;56.17;96859.34;8317275;28;20396;-66
2021/05/16 00:55:18;;;;;;;2.57;0.87;;;;;;;13.58;56.00;96861.16;8317165;28;20372;-67
2021/05/16 00:59:20;;;;;;;1.40;0.97;;;;;;;13.59;55.94;96867.19;8316656;28;20276;-67
2021/05/16 01:03:23;;;;;;;1.27;0.73;;;;;;;13.53;56.12;96859.84;8302203;28;20209;-67
2021/05/16 01:07:26;;;;;;;2.63;0.70;;;;;;;13.60;55.72;96864.47;8284114;28;20238;-67
2021/05/16 01:11:31;;;;;;;1.43;0.80;;;;;;;13.63;55.55;96871.22;8284419;28;20210;-67
2021/05/16 01:15:34;;;;;;;1.97;0.90;;;;;;;13.47;56.15;96866.34;8284551;28;20201;-67
2021/05/16 01:19:37;;;;;;;2.00;0.80;;;;;;;13.57;55.78;96863.88;8284111;28;20574;-67
2021/05/16 01:23:47;;;;;;;2.80;1.03;;;;;;;13.64;55.63;96868.50;8284069;28;20207;-66
2021/05/16 01:27:49;;;;;;;1.17;0.70;;;;;;;13.59;55.18;96875.00;8284046;28;20417;-66
2021/05/16 01:31:52;;;;;;;2.47;0.97;;;;;;;13.49;55.55;96869.66;8284193;28;20206;-66
2021/05/16 01:35:54;;;;;;;4.97;0.90;;;;;;;13.59;54.99;96862.81;8283926;28;20201;-66
2021/05/16 01:39:57;;;;;;;3.67;1.27;;;;;;;13.56;54.96;96875.25;8290311;28;20233;-66
2021/05/16 01:44:00;;;;;;;3.40;1.27;;;;;;;13.64;54.97;96867.69;8290256;28;20201;-66
2021/05/16 01:48:03;;;;;;;2.87;1.10;;;;;;;13.59;54.53;96862.81;8290257;28;20208;-66
2021/05/16 01:52:06;;;;;;;2.67;1.23;;;;;;;13.51;55.29;96867.75;8289988;28;20221;-66
2021/05/16 01:56:09;;;;;;;2.77;0.83;;;;;;;13.55;55.42;96868.38;8275446;28;20290;-66
2021/05/16 02:00:15;;;;;;;3.43;1.10;;;;;;;13.54;55.13;96870.16;8273088;28;20225;-66
2021/05/16 02:04:18;;;;;;;4.07;1.20;;;;;;;13.41;55.25;96877.19;8273315;28;20236;-66
2021/05/16 02:08:20;;;;;;;3.13;1.30;;;;;;;13.41;55.41;96872.00;8272565;28;20559;-66
2021/05/16 02:12:24;;;;;;;5.47;1.30;;;;;;;13.42;55.17;96864.09;8280725;28;20198;-66
2021/05/16 02:16:26;;;;;;;2.73;1.10;;;;;;;13.17;55.94;96856.34;8289137;28;20394;-66
2021/05/16 02:20:28;;;;;;;1.97;1.03;;;;;;;13.32;55.54;96862.25;8288987;28;20242;-66
2021/05/16 02:24:31;;;;;;;4.80;1.20;;;;;;;13.34;55.20;96863.78;8288980;28;20202;-66
2021/05/16 02:28:34;;;;;;;3.87;1.13;;;;;;;13.21;55.44;96860.41;8288546;28;20206;-66
2021/05/16 02:32:38;;;;;;;6.00;1.40;;;;;;;12.95;55.86;96857.91;8288713;28;20206;-66
2021/05/16 02:36:40;;;;;;;4.97;1.47;;;;;;;13.04;55.63;96859.84;8288276;28;20201;-66
2021/05/16 02:40:42;;;;;;;7.07;1.93;;;;;;;13.11;55.32;96874.06;8288560;28;20230;-66
2021/05/16 02:44:46;;;;;;;4.13;1.30;;;;;;;13.03;55.54;96871.19;8288306;28;20371;-66
2021/05/16 02:48:48;;;;;;;4.10;1.20;;;;;;;13.05;55.43;96869.28;8287036;28;20216;-66
2021/05/16 02:52:50;;;;;;;5.63;1.70;;;;;;;13.07;55.46;96877.81;8288277;28;20398;-67
2021/05/16 02:56:53;;;;;;;3.07;1.27;;;;;;;13.03;55.57;96871.19;8287954;28;20209;-66
2021/05/16 03:00:56;;;;;;;3.47;1.20;;;;;;;12.97;55.78;96868.22;8287730;28;20240;-66
2021/05/16 03:04:58;;;;;;;4.13;1.50;;;;;;;12.97;55.92;96874.22;8287641;28;20428;-66
2021/05/16 03:09:01;;;;;;;7.97;1.43;;;;;;;12.74;56.21;96875.88;8287360;28;20237;-66
2021/05/16 03:13:03;;;;;;;3.63;1.50;;;;;;;12.74;55.91;96872.41;8287528;28;20379;-66
2021/05/16 03:17:07;;;;;;;3.53;1.30;;;;;;;12.78;55.68;96873.88;8287372;28;20389;-66
2021/05/16 03:21:09;;;;;;;5.47;1.40;;;;;;;12.85;55.57;96875.94;8286945;28;20230;-66
2021/05/16 03:25:13;;;;;;;4.43;1.53;;;;;;;12.50;56.35;96878.41;8287297;28;20206;-66
2021/05/16 03:29:15;;;;;;;5.93;1.50;;;;;;;12.67;55.96;96875.44;8286775;28;20213;-66
2021/05/16 03:33:19;;;;;;;4.97;1.40;;;;;;;12.70;55.98;96882.22;8287109;28;20201;-66
2021/05/16 03:37:21;;;;;;;6.20;1.47;;;;;;;12.70;56.25;96877.84;8286498;28;20208;-66
2021/05/16 03:41:23;;;;;;;7.17;1.37;;;;;;;12.58;56.42;96881.28;8286866;28;20251;-66
2021/05/16 03:45:26;;;;;;;6.57;1.40;;;;;;;12.59;56.45;96884.72;8286485;28;20213;-66
2021/05/16 03:49:29;;;;;;;8.43;1.60;;;;;;;12.62;55.80;96889.69;8286454;28;20206;-66
2021/05/16 03:53:32;;;;;;;4.47;1.30;;;;;;;12.66;55.86;96891.13;8286246;28;20216;-66
2021/05/16 03:57:34;;;;;;;3.80;1.30;;;;;;;12.66;56.13;96893.72;8285110;28;20393;-66
2021/05/16 04:01:37;;;;;;;2.77;1.30;;;;;;;12.63;55.76;96897.38;8285171;28;20225;-66
2021/05/16 04:05:40;;;;;;;5.07;1.60;;;;;;;12.66;55.58;96907.56;8285912;28;20228;-66
2021/05/16 04:09:42;;;;;;;3.70;1.63;;;;;;;12.65;55.80;96903.28;8286051;28;20209;-66
2021/05/16 04:13:45;;;;;;;3.80;1.60;;;;;;;12.74;55.67;96900.97;8285185;28;20193;-66
2021/05/16 04:17:47;;;;;;;3.83;1.20;;;;;;;12.69;55.77;96899.53;8285031;28;20205;-66
2021/05/16 04:21:50;;;;;;;5.50;1.67;;;;;;;12.79;55.63;96898.91;8284541;28;20222;-66
2021/05/16 04:25:53;;;;;;;3.00;1.30;;;;;;;12.82;55.49;96903.91;8284330;28;20194;-66
2021/05/16 04:29:55;;;;;;;5.33;1.53;;;;;;;12.66;55.75;96898.91;8284691;28;20201;-66
2021/05/16 04:33:57;;;;;;;3.53;1.27;;;;;;;12.53;56.00;96904.16;8282312;28;20484;-66
2021/05/16 04:38:01;;;;;;;4.40;1.20;;;;;;;12.77;55.82;96908.56;8284049;28;20206;-66
2021/05/16 04:42:04;;;;;;;4.30;1.43;;;;;;;12.46;56.47;96908.94;8284582;28;20225;-66
2021/05/16 04:46:06;;;;;;;6.13;1.50;;;;;;;12.56;56.31;96911.72;8284714;28;20202;-66
2021/05/16 04:50:10;;;;;;;4.27;1.30;;;;;;;12.63;56.36;96905.16;8284780;28;20394;-66
2021/05/16 04:54:13;;;;;;;7.43;1.70;;;;;;;12.76;56.03;96906.94;8284916;28;20386;-66
2021/05/16 04:58:15;;;;;;;4.47;1.47;;;;;;;12.63;55.83;96912.97;8284242;28;20202;-66
2021/05/16 05:02:19;;;;;;;4.13;1.50;;;;;;;12.63;56.23;96917.34;8283657;28;20233;-66
2021/05/16 05:06:21;;;;;;;4.37;1.43;;;;;;;12.48;56.75;96895.84;8282627;28;20238;-66
2021/05/16 05:10:25;;;;;;;4.50;1.47;;;;;;;12.65;56.61;96899.88;8283089;28;20198;-66
2021/05/16 05:14:28;;;;;;;4.33;1.87;;;;;;;12.92;56.39;96904.91;8289400;28;20500;-66
2021/05/16 05:18:32;;;;;;;4.40;1.50;;;;;;;12.66;56.87;96915.38;8287611;28;20216;-66
2021/05/16 05:22:34;;;;;;;2.97;1.10;;;;;;;13.11;55.71;96899.22;8290293;28;20422;-66
2021/05/16 05:26:38;;;;;;;7.77;1.63;;;;;;;13.39;54.66;96900.69;8290639;28;20201;-66
2021/05/16 05:30:40;;;;;;;6.23;1.43;;;;;;;12.97;55.77;96910.59;8290669;28;20213;-66
2021/05/16 05:34:42;;;;;;;3.00;1.20;;;;;;;13.33;55.28;96914.16;8290869;28;20228;-66
2021/05/16 05:38:45;;;;;;;2.70;1.13;;;;;;;13.42;54.91;96900.50;8290091;28;20201;-66
2021/05/16 05:42:48;;;;;;;5.37;1.50;;;;;;;13.51;54.84;96900.75;8290351;28;20235;-66
2021/05/16 05:46:50;;;;;;;3.13;1.33;;;;;;;13.48;55.25;96912.22;8290345;28;20208;-66
2021/05/16 05:50:53;;;;;;;4.10;1.40;;;;;;;13.36;55.89;96913.09;8289905;28;20220;-66
2021/05/16 05:54:55;;;;;;;4.37;1.63;;;;;;;13.35;55.64;96911.44;8290061;28;20208;-66
2021/05/16 05:58:58;;;;;;;4.90;1.40;;;;;;;13.40;55.57;96914.53;8289708;28;20202;-66
2021/05/16 06:03:01;;;;;;;4.87;1.40;;;;;;;13.27;56.15;96909.38;8289417;28;20229;-66
2021/05/16 06:07:04;;;;;;;3.73;1.50;;;;;;;13.52;56.01;96918.00;8289507;28;20264;-66
2021/05/16 06:11:07;;;;;;;4.33;1.73;;;;;;;13.25;57.03;96919.88;8289736;28;20515;-66
2021/05/16 06:15:11;;;;;;;5.50;1.63;;;;;;;13.72;56.28;96911.34;8289484;28;20208;-66
2021/05/16 06:19:14;;;;;;;4.30;1.43;;;;;;;13.73;55.87;96908.63;8289376;28;20216;-66
2021/05/16 06:23:17;;;;;;;5.37;1.60;;;;;;;13.53;56.45;96911.88;8288806;28;20201;-66
2021/05/16 06:27:20;;;;;;;5.53;1.73;;;;;;;13.64;56.45;96912.72;8288523;28;20236;-66
2021/05/16 06:31:24;;;;;;;4.13;1.37;;;;;;;13.37;56.98;96915.59;8288945;28;20233;-66
2021/05/16 06:35:26;;;;;;;6.40;1.50;;;;;;;13.63;56.62;96921.50;8288885;28;20208;-66
2021/05/16 06:39:31;;;;;;;4.43;1.27;;;;;;;13.69;56.54;96920.22;8288189;28;20313;-66
2021/05/16 06:43:33;;;;;;;6.73;1.97;;;;;;;13.82;56.28;96913.16;8288388;28;20317;-66
2021/05/16 06:47:36;;;;;;;3.57;1.40;;;;;;;14.08;55.38;96918.19;8288577;28;20240;-66
2021/05/16 06:51:39;;;;;;;7.83;1.87;;;;;;;14.11;55.54;96909.31;8287805;28;20516;-66
2021/05/16 06:55:41;;;;;;;3.77;1.70;;;;;;;13.83;56.48;96908.78;8287757;28;20317;-66
2021/05/16 06:59:44;;;;;;;3.37;1.50;;;;;;;14.10;56.14;96910.25;8287564;28;20233;-66
2021/05/16 07:03:47;;;;;;;3.77;1.57;;;;;;;14.28;55.28;96911.47;8287539;28;20201;-66
2021/05/16 07:07:49;;;;;;;4.27;1.63;;;;;;;14.25;55.50;96907.31;8287848;28;20253;-66
2021/05/16 07:11:52;;;;;;;3.87;1.40;;;;;;;14.19;56.06;96904.38;8287727;28;20276;-66
2021/05/16 07:15:55;;;;;;;5.40;1.50;;;;;;;14.24;55.93;96908.28;8287604;28;20217;-66
2021/05/16 07:19:58;;;;;;;4.27;1.40;;;;;;;14.39;55.19;96902.81;8287249;28;20419;-66
2021/05/16 07:24:00;;;;;;;3.20;1.30;;;;;;;14.58;54.83;96915.31;8287386;28;20209;-66
2021/05/16 07:28:03;;;;;;;2.97;1.23;;;;;;;14.43;55.49;96920.72;8286827;28;20202;-66
2021/05/16 07:32:08;;;;;;;4.13;1.40;;;;;;;14.53;56.14;96915.63;8286774;28;20214;-66
2021/05/16 07:36:12;;;;;;;4.00;1.60;;;;;;;14.48;56.72;96910.75;8286053;28;20201;-66
2021/05/16 07:40:14;;;;;;;3.73;1.40;;;;;;;14.41;57.11;96906.16;8286533;28;20237;-66
2021/05/16 07:44:17;;;;;;;4.80;1.60;;;;;;;14.31;58.85;96905.19;8286445;28;20202;-66
2021/05/16 07:48:28;;;;;;;4.70;1.77;;;;;;;14.39;58.92;96921.06;8286305;28;20202;-66
2021/05/16 07:52:31;;;;;;;5.77;1.40;;;;;;;14.51;59.81;96911.47;8286578;28;20194;-66
2021/05/16 07:56:33;;;;;;;5.77;1.77;;;;;;;14.55;59.30;96905.09;8285413;28;20206;-66
2021/05/16 08:00:36;;;;;;;4.33;1.40;;;;;;;14.57;61.12;96914.47;8270542;28;20285;-66
2021/05/16 08:04:38;;;;;;;2.30;1.20;;;;;;;14.52;60.21;96902.72;8285597;28;20227;-66
2021/05/16 08:08:41;;;;;;;4.97;1.50;;;;;;;14.48;60.16;96909.94;8285567;28;20237;-66
2021/05/16 08:12:44;;;;;;;4.33;1.57;;;;;;;14.44;60.86;96914.56;8285653;28;20395;-66
2021/05/16 08:16:46;;;;;;;6.83;1.63;;;;;;;14.68;60.49;96905.84;8285488;28;20391;-66
2021/05/16 08:20:49;;;;;;;5.23;1.73;;;;;;;14.79;61.32;96905.84;8285166;28;20237;-66
2021/05/16 08:24:52;;;;;;;3.03;1.23;;;;;;;15.25;60.52;96899.56;8284371;28;20193;-66
2021/05/16 08:28:55;;;;;;;5.17;1.50;;;;;;;15.54;58.76;96891.16;8285136;28;20204;-66
2021/05/16 08:32:57;;;;;;;4.13;1.50;;;;;;;15.35;59.44;96884.00;8284790;28;20278;-66
2021/05/16 08:37:00;;;;;;;3.00;1.20;;;;;;;15.26;57.64;96882.13;8285171;28;20224;-66
2021/05/16 08:41:03;;;;;;;5.53;1.90;;;;;;;15.15;59.13;96890.00;8284862;28;20240;-68
2021/05/16 08:45:14;;;;;;;4.60;1.60;;;;;;;15.23;59.46;96884.97;8284549;28;20209;-66
2021/05/16 08:49:16;;;;;;;4.63;1.50;;;;;;;15.60;57.83;96887.22;8284825;28;20310;-66
2021/05/16 08:53:19;;;;;;;4.20;1.37;;;;;;;15.62;57.64;96895.75;8283714;28;20202;-66
2021/05/16 08:57:23;;;;;;;3.80;1.60;;;;;;;15.56;58.21;96894.47;8284161;28;20409;-66
2021/05/16 09:01:27;;;;;;;5.53;1.73;;;;;;;16.56;56.38;96887.94;8284008;28;20259;-66
2021/05/16 09:05:33;;;;;;;2.83;1.47;;;;;;;16.90;55.16;96891.13;8284193;28;20232;-66
2021/05/16 09:09:39;;;;;;;4.57;1.80;;;;;;;16.63;53.17;96889.06;8283755;28;20201;-66
2021/05/16 09:13:45;;;;;;;2.67;1.30;;;;;;;16.57;53.51;96882.59;8283934;28;20216;-66
2021/05/16 09:17:52;;;;;;;3.87;1.20;;;;;;;16.48;51.58;96885.16;8283877;28;20396;-66
2021/05/16 09:21:54;;;;;;;6.23;1.50;;;;;;;16.45;50.84;96886.28;8284123;28;20427;-66
2021/05/16 09:26:12;;;;;;;3.93;1.37;;;;;;;16.55;49.63;96889.75;8284145;28;20202;-66
2021/05/16 09:30:30;;;;;;;4.63;1.40;;;;;;;17.24;46.70;96877.69;8283903;28;20217;-66
2021/05/16 09:34:33;;;;;;;2.70;1.10;;;;;;;17.24;45.44;96882.09;8283930;28;20523;-67
2021/05/16 09:38:36;;;;;;;5.00;1.60;;;;;;;16.76;46.64;96887.06;8284047;28;20202;-66
2021/05/16 09:42:38;;;;;;;7.07;1.90;;;;;;;16.77;48.06;96882.66;8283504;28;20233;-66
2021/05/16 09:46:42;;;;;;;3.93;1.53;;;;;;;16.63;49.08;96881.25;8283764;28;20214;-66
2021/05/16 09:50:44;;;;;;;5.80;1.60;;;;;;;16.59;49.76;96880.66;8283303;28;20212;-66
2021/05/16 09:55:01;;;;;;;4.10;1.97;;;;;;;17.04;47.45;96876.00;8283807;28;20205;-66
2021/05/16 09:59:06;;;;;;;3.17;1.17;;;;;;;16.76;47.33;96871.38;8286927;28;20411;-66
2021/05/16 10:03:09;;;;;;;5.53;1.50;;;;;;;16.51;46.88;96869.25;8289357;28;20229;-66
2021/05/16 10:07:12;;;;;;;4.10;1.60;;;;;;;16.14;47.09;96867.13;8289161;28;20576;-66
2021/05/16 10:11:16;;;;;;;5.80;1.40;;;;;;;16.05;49.73;96868.75;8289502;28;20323;-66
2021/05/16 10:15:23;;;;;;;3.23;1.40;;;;;;;16.00;48.93;96866.50;8289302;28;20207;-66
2021/05/16 10:19:31;;;;;;;4.20;1.30;;;;;;;16.13;49.71;96865.50;8288892;28;20275;-66
2021/05/16 10:23:35;;;;;;;4.93;1.57;;;;;;;17.70;47.33;96855.22;8288932;28;20226;-66
2021/05/16 10:27:42;;;;;;;3.33;1.40;;;;;;;18.23;45.05;96853.91;8289057;28;20228;-66
2021/05/16 10:31:48;;;;;;;3.80;1.50;;;;;;;18.99;43.10;96845.03;8289232;28;20190;-66
2021/05/16 10:35:51;;;;;;;3.63;1.40;;;;;;;17.78;43.41;96839.66;8288339;28;20206;-66
2021/05/16 10:39:55;;;;;;;6.90;3.10;;;;;;;17.28;43.31;96846.84;8288606;28;20202;-67
2021/05/16 10:44:30;;;;;;;5.17;2.20;;;;;;;17.43;43.36;96853.31;8287965;28;20229;-66
2021/05/16 10:48:34;;;;;;;5.70;2.40;;;;;;;17.16;42.71;96833.09;8288153;28;20388;-66
2021/05/16 10:52:38;;;;;;;6.07;1.90;;;;;;;16.87;43.27;96853.94;8288212;28;20209;-66
2021/05/16 10:56:40;;;;;;;6.87;2.10;;;;;;;16.18;45.39;96877.19;8287796;28;20201;-66
2021/05/16 11:00:44;;;;;;;5.23;2.03;;;;;;;15.63;49.74;96876.53;8287776;28;20229;-66
2021/05/16 11:04:46;;;;;;;4.80;1.20;;;;;;;15.29;53.00;96871.47;8287171;28;20221;-66
2021/05/16 11:09:09;;;;;;;5.07;1.23;;;;;;;15.22;52.82;96839.81;8286497;28;20237;-66
2021/05/16 11:13:12;;;;;;;5.07;1.40;;;;;;;16.48;49.56;96828.50;8287454;28;20217;-66
2021/05/16 11:17:17;;;;;;;3.50;1.30;;;;;;;17.31;52.45;96830.88;8287613;28;20206;-67
2021/05/16 11:21:20;;;;;;;4.30;1.37;;;;;;;17.98;51.56;96827.38;8286410;28;20221;-66
2021/05/16 11:25:25;;;;;;;4.57;1.50;;;;;;;18.51;50.68;96819.88;8286720;28;20288;-66
2021/05/16 11:29:28;;;;;;;2.57;1.20;;;;;;;18.74;50.18;96809.81;8286751;28;20202;-66
2021/05/16 11:33:31;;;;;;;4.20;1.17;;;;;;;19.08;45.17;96814.47;8287160;28;20400;-67
2021/05/16 11:37:34;;;;;;;4.60;1.40;;;;;;;19.48;47.37;96800.84;8286788;28;20202;-66
2021/05/16 11:41:39;;;;;;;5.67;1.40;;;;;;;19.95;45.91;96817.28;8286354;28;20233;-66
2021/05/16 11:45:43;;;;;;;6.63;2.33;;;;;;;18.90;44.01;96806.56;8286406;28;20209;-67
2021/05/16 11:49:50;;;;;;;5.20;2.30;;;;;;;19.58;42.18;96787.63;8286226;28;20214;-66
2021/05/16 11:53:55;;;;;;;2.57;1.00;;;;;;;19.00;41.79;96780.25;8286545;28;20517;-67
2021/05/16 11:57:58;;;;;;;3.97;1.23;;;;;;;19.79;41.30;96770.75;8285801;28;20268;-66
2021/05/16 12:02:03;;;;;;;3.77;1.67;;;;;;;19.86;41.48;96764.72;8285605;28;20235;-67
2021/05/16 12:06:07;;;;;;;5.87;1.90;;;;;;;19.28;41.32;96758.19;8285523;28;20242;-67
2021/05/16 12:10:18;;;;;;;3.90;1.20;;;;;;;20.15;40.22;96753.03;8285866;28;20209;-67
2021/05/16 12:14:23;;;;;;;9.13;2.10;;;;;;;20.09;39.24;96749.22;8286017;28;20354;-66
2021/05/16 12:18:25;;;;;;;4.60;1.87;;;;;;;20.42;37.56;96733.56;8285409;28;20493;-66
2021/05/16 12:22:34;;;;;;;4.27;1.33;;;;;;;20.96;38.73;96730.59;8284881;28;20229;-66
2021/05/16 12:26:38;;;;;;;4.20;1.73;;;;;;;20.96;37.26;96719.22;8285291;28;20201;-66
2021/05/16 12:30:41;;;;;;;4.17;1.47;;;;;;;20.25;36.68;96718.72;8275665;28;20198;-67
2021/05/16 12:34:45;;;;;;;4.70;1.30;;;;;;;21.46;40.36;96718.28;8276627;28;20213;-74
2021/05/16 12:38:50;;;;;;;7.47;1.43;;;;;;;21.55;39.76;96706.75;8268097;28;20203;-75
2021/05/16 12:43:03;;;;;;;4.20;1.40;;;;;;;20.65;39.84;96698.81;8263180;28;20223;-74
2021/05/16 12:47:06;;;;;;;4.00;1.30;;;;;;;21.27;39.11;96704.44;8255073;28;20225;-74
2021/05/16 12:51:09;;;;;;;10.60;1.63;;;;;;;21.59;38.62;96694.03;8252264;28;20208;-73
2021/05/16 12:55:26;;;;;;;4.27;1.33;;;;;;;21.03;34.40;96696.53;8282139;28;20199;-74
2021/05/16 12:59:37;;;;;;;3.93;1.43;;;;;;;21.12;36.27;96697.38;8285121;28;20212;-73
2021/05/16 13:03:40;;;;;;;5.50;1.37;;;;;;;20.42;37.00;96698.56;8284391;28;20243;-75
2021/05/16 13:07:47;;;;;;;5.33;1.60;;;;;;;19.70;38.89;96723.41;8284219;28;20236;-74
2021/05/16 13:11:51;;;;;;;3.87;1.30;;;;;;;18.47;40.20;96724.97;8281652;28;20199;-74
2021/05/16 13:16:01;;;;;;;3.33;1.43;;;;;;;17.95;42.52;96730.75;8283444;28;20198;-74
2021/05/16 13:20:19;;;;;;;13.57;7.77;;;;;;;17.96;45.57;96728.97;8281048;28;20190;-74
2021/05/16 13:24:22;;;;;;;5.60;3.33;;;;;;;17.70;48.64;96728.75;8283941;28;20236;-74
2021/05/16 13:28:27;;;;;;;4.37;3.00;;;;;;;17.66;49.03;96715.09;8283463;28;20493;-74
2021/05/16 13:32:30;;;;;;;6.63;2.47;;;;;;;17.83;49.24;96707.47;8284820;28;20201;-74
2021/05/16 13:36:33;;;;;;;14.03;7.77;;;;;;;18.07;48.53;96702.59;8289949;28;20198;-74
2021/05/16 13:40:36;;;;;;;13.67;7.73;;;;;;;17.59;51.01;96711.41;8289829;28;20221;-74
2021/05/16 13:44:38;;;;;;;21.47;15.17;;;;;;;18.02;49.11;96714.47;8289968;28;20229;-74
2021/05/16 13:48:41;;;;;;;14.60;8.57;;;;;;;18.35;47.75;96685.06;8290105;28;20205;-71
2021/05/16 13:52:50;;;;;;;10.10;4.97;;;;;;;19.05;45.10;96691.44;8289654;28;20206;-72
2021/05/16 13:56:53;;;;;;;11.53;3.90;;;;;;;18.82;45.49;96680.59;8289613;28;20587;-72
2021/05/16 14:00:56;;;;;;;7.33;3.00;;;;;;;18.67;45.36;96675.84;8288549;28;20213;-72
2021/05/16 14:04:59;;;;;;;8.83;2.37;;;;;;;18.67;45.01;96675.84;8289108;28;20226;-72
2021/05/16 14:09:08;;;;;;;7.13;1.77;;;;;;;19.52;42.36;96673.56;8289751;28;20244;-72
2021/05/16 14:13:10;;;;;;;6.40;1.70;;;;;;;19.88;41.86;96677.88;8288755;28;20198;-72
2021/05/16 14:17:13;;;;;;;3.17;1.43;;;;;;;20.39;40.99;96680.47;8289643;28;20479;-73
2021/05/16 14:21:15;;;;;;;10.17;1.80;;;;;;;20.51;40.68;96673.94;8289332;28;20229;-74
2021/05/16 14:25:19;;;;;;;3.33;1.13;;;;;;;20.27;40.08;96661.56;8289391;28;20512;-73
2021/05/16 14:29:22;;;;;;;5.63;1.43;;;;;;;20.55;39.78;96651.59;8289013;28;20226;-75
2021/05/16 14:33:24;;;;;;;5.13;1.40;;;;;;;20.56;38.72;96641.91;8288501;28;20210;-74
2021/05/16 14:37:26;;;;;;;6.70;1.70;;;;;;;20.27;38.99;96653.69;8256138;28;20499;-74
2021/05/16 14:41:30;;;;;;;3.63;1.00;;;;;;;20.52;38.27;96628.25;8274145;28;20230;-75
2021/05/16 14:45:32;;;;;;;3.43;1.13;;;;;;;20.54;38.21;96620.19;8287588;28;20209;-75
2021/05/16 14:49:34;;;;;;;5.47;1.33;;;;;;;19.81;39.84;96619.88;8288346;28;20208;-75
2021/05/16 14:53:37;;;;;;;3.27;1.10;;;;;;;20.60;38.27;96620.41;8287587;28;20402;-74
2021/05/16 14:57:40;;;;;;;4.87;1.30;;;;;;;20.10;39.74;96619.50;8287979;28;20223;-75
2021/05/16 15:01:43;;;;;;;3.97;1.10;;;;;;;19.54;40.38;96634.00;8287069;28;20253;-75
2021/05/16 15:05:45;;;;;;;4.17;1.00;;;;;;;19.25;40.05;96635.16;8286961;28;20225;-75
2021/05/16 15:09:47;;;;;;;3.97;1.17;;;;;;;19.61;40.37;96629.78;8286817;28;20200;-76
2021/05/16 15:13:51;;;;;;;5.53;1.20;;;;;;;19.57;41.42;96623.19;8286731;28;20206;-73
2021/05/16 15:17:54;;;;;;;6.07;1.63;;;;;;;19.76;40.96;96608.19;8286726;28;20487;-75
2021/05/16 15:21:56;;;;;;;4.00;1.10;;;;;;;19.83;40.75;96617.09;8286637;28;20230;-75
2021/05/16 15:25:59;;;;;;;6.40;1.37;;;;;;;19.96;40.39;96611.41;8287030;28;20198;-76
2021/05/16 15:30:05;;;;;;;10.83;1.43;;;;;;;20.07;40.03;96590.91;8286816;28;20527;-75
2021/05/16 15:34:07;;;;;;;9.60;1.37;;;;;;;20.28;39.47;96582.56;8287133;28;20214;-75
2021/05/16 15:38:10;;;;;;;8.23;1.20;;;;;;;19.97;39.57;96584.13;8286640;28;20202;-74
2021/05/16 15:42:12;;;;;;;11.73;1.70;;;;;;;20.30;39.92;96564.00;8297769;28;20536;-78
2021/05/16 15:46:16;;;;;;;10.70;1.30;;;;;;;20.24;39.91;96567.28;8305646;28;20203;-82
2021/05/16 15:50:20;;;;;;;6.20;1.30;;;;;;;20.44;39.78;96555.44;8301746;28;20198;-81
2021/05/16 15:54:23;;;;;;;10.23;1.30;;;;;;;20.41;38.92;96558.41;8285841;28;20212;-82
2021/05/16 15:58:25;;;;;;;10.47;1.60;;;;;;;20.56;39.40;96555.97;8285911;28;20213;-81
2021/05/16 16:02:29;;;;;;;7.13;1.40;;;;;;;20.43;38.67;96553.81;8296535;28;20433;-82
2021/05/16 16:06:32;;;;;;;5.90;1.30;;;;;;;20.30;39.04;96556.09;8288660;28;20229;-82
2021/05/16 16:10:34;;;;;;;8.27;1.10;;;;;;;20.32;38.77;96546.25;8318529;28;20201;-82
2021/05/16 16:14:37;;;;;;;4.47;1.10;;;;;;;20.29;38.97;96551.81;8317283;28;20508;-80
2021/05/16 16:18:40;;;;;;;2.50;1.00;;;;;;;20.31;38.58;96555.09;8285370;28;20316;-80
2021/05/16 16:22:43;;;;;;;4.43;1.10;;;;;;;20.00;39.39;96552.28;8285083;28;20540;-81
2021/05/16 16:26:45;;;;;;;7.63;1.30;;;;;;;20.07;39.92;96550.66;8284025;28;20202;-81
2021/05/16 16:30:48;;;;;;;7.70;1.20;;;;;;;20.14;39.80;96543.75;8284953;28;20364;-80
2021/05/16 16:34:51;;;;;;;3.43;1.13;;;;;;;19.80;39.96;96536.81;8284297;28;20508;-77
2021/05/16 16:38:53;;;;;;;7.90;1.17;;;;;;;19.96;40.04;96532.59;8284347;28;20388;-79
2021/05/16 16:42:56;;;;;;;7.93;1.30;;;;;;;20.01;39.38;96528.47;8284026;28;20232;-81
2021/05/16 16:46:58;;;;;;;7.83;1.50;;;;;;;19.97;39.37;96527.16;8284030;28;20202;-81
2021/05/16 16:51:03;;;;;;;8.87;1.87;;;;;;;19.89;38.38;96529.75;8284174;28;20199;-81
2021/05/16 16:55:06;;;;;;;3.90;1.30;;;;;;;19.77;38.48;96533.69;8281365;28;20443;-68
2021/05/16 16:59:08;;;;;;;4.87;2.07;;;;;;;19.63;37.97;96535.91;8282962;28;20496;-68
2021/05/16 17:03:11;;;;;;;7.17;1.53;;;;;;;19.15;40.54;96529.47;8283389;28;20234;-68
2021/05/16 17:07:14;;;;;;;4.93;2.23;;;;;;;18.95;42.04;96527.09;8283880;28;20469;-68
2021/05/16 17:11:16;;;;;;;4.80;2.40;;;;;;;18.81;41.14;96524.19;8285348;28;20212;-67
2021/05/16 17:15:19;;;;;;;4.93;1.67;;;;;;;18.48;39.98;96523.97;8282158;28;20387;-67
2021/05/16 17:19:23;;;;;;;6.57;1.87;;;;;;;18.07;41.49;96528.88;8283503;28;20210;-68
2021/05/16 17:23:27;;;;;;;3.23;1.30;;;;;;;18.03;42.20;96525.72;8284305;28;20233;-68
2021/05/16 17:27:30;;;;;;;7.63;1.40;;;;;;;18.03;42.73;96527.50;8283774;28;20214;-68
2021/05/16 17:31:32;;;;;;;3.67;1.23;;;;;;;17.52;44.00;96527.13;8284344;28;20202;-68
2021/05/16 17:35:34;;;;;;;3.57;1.17;;;;;;;17.15;44.20;96528.84;8284211;28;20214;-68
2021/05/16 17:39:38;;;;;;;3.83;1.40;;;;;;;17.14;44.01;96537.63;8283813;28;20206;-68
2021/05/16 17:43:40;;;;;;;6.73;1.90;;;;;;;17.03;45.74;96523.91;8284285;28;20225;-68
2021/05/16 17:47:43;;;;;;;5.63;1.77;;;;;;;16.88;46.96;96532.22;8284182;28;20484;-68
2021/05/16 17:51:45;;;;;;;4.13;1.77;;;;;;;16.73;48.44;96529.19;8283622;28;20202;-68
2021/05/16 17:55:49;;;;;;;4.73;1.63;;;;;;;16.90;48.55;96530.28;8283563;28;20388;-68
2021/05/16 17:59:51;;;;;;;4.87;2.00;;;;;;;16.66;49.59;96529.91;8283583;28;20208;-68
2021/05/16 18:03:54;;;;;;;3.50;1.70;;;;;;;16.60;49.52;96533.91;8283396;28;20244;-69
2021/05/16 18:07:56;;;;;;;4.63;1.90;;;;;;;16.14;50.45;96536.28;8284035;28;20427;-67
2021/05/16 18:12:00;;;;;;;4.53;1.70;;;;;;;16.32;49.48;96533.00;8283286;28;20308;-70
2021/05/16 18:16:03;;;;;;;6.17;1.60;;;;;;;16.18;49.93;96524.63;8283599;28;20202;-66
2021/05/16 18:20:06;;;;;;;5.33;1.83;;;;;;;16.27;49.79;96524.75;8286444;28;20202;-66
2021/05/16 18:24:10;;;;;;;3.77;1.40;;;;;;;16.57;48.43;96521.94;8289297;28;20233;-66
2021/05/16 18:28:14;;;;;;;5.67;1.50;;;;;;;16.63;47.73;96531.00;8288927;28;20220;-66
2021/05/16 18:32:16;;;;;;;2.27;1.00;;;;;;;16.71;47.66;96525.91;8289121;28;20205;-66
2021/05/16 18:36:19;;;;;;;3.13;1.30;;;;;;;16.79;47.57;96523.41;8288691;28;20208;-66
2021/05/16 18:40:22;;;;;;;3.57;1.30;;;;;;;16.87;47.49;96514.03;8288778;28;20526;-66
2021/05/16 18:44:25;;;;;;;3.43;1.07;;;;;;;16.83;47.52;96517.91;8288502;28;20225;-66
2021/05/16 18:48:30;;;;;;;3.53;1.40;;;;;;;16.84;47.78;96514.34;8287956;28;20386;-66
2021/05/16 18:52:33;;;;;;;3.60;1.57;;;;;;;16.74;47.96;96504.72;8287645;28;20202;-66
2021/05/16 18:56:35;;;;;;;4.10;2.00;;;;;;;16.79;47.54;96518.19;8287317;28;20194;-66
2021/05/16 19:00:39;;;;;;;6.60;2.23;;;;;;;16.69;47.55;96522.59;8287252;28;20198;-65
2021/05/16 19:04:41;;;;;;;4.67;1.80;;;;;;;16.65;47.84;96538.72;8287496;28;20240;-66
2021/05/16 19:08:44;;;;;;;3.87;1.50;;;;;;;16.01;49.61;96543.56;8288101;28;20226;-65